Language: 


Des rapports , des résumés tant et plus, au choix de chacun....


Données statistiques de la station
Quotidien Rapport Mars 30, 2017 Unités:  Métrique    Anglais   les deux
« Précédent Jour
Suivant Jour »
Quotidien Hebdomadaire Mensuel Annuel Actuel
  Haut: Bas: Moyen:
Température: 23.8 °C 10.1 °C 16.7 °C
Pt de rosée: 10.7 °C 6.3 °C 8.1 °C
Humidité: 83 % 37 % 60 %
Vitesse du vent: 21.2 km/h 0.0 km/h 7.7 km/h
Rafales: 24.8 km/h - -
Vent:- - South
Pression: 1023.9 hPa 1016.1 hPa -
Précipitation: 0.0 mm    
Historical Graphs
 
 
Données statistiques pour Mars 30, 2017
Heure Température Point de rosée Pression Vent Vitesse du vent Refales Humidité Pluie (taux horaire)
00:00 13.1 °C 8.7 °C 1023.9 hPa Calm   4.7 km/h 75 % 0.0 mm
00:05 13.1 °C 8.5 °C 1023.9 hPa Calm   4.0 km/h 74 % 0.0 mm
00:10 13.1 °C 8.6 °C 1023.9 hPa Calm   7.9 km/h 74 % 0.0 mm
00:15 13.2 °C 8.7 °C 1023.9 hPa Calm   7.9 km/h 74 % 0.0 mm
00:20 13.1 °C 8.6 °C 1023.9 hPa Calm   5.5 km/h 74 % 0.0 mm
00:25 13.1 °C 8.6 °C 1022.9 hPa Calm   7.9 km/h 74 % 0.0 mm
00:30 13.1 °C 8.4 °C 1022.9 hPa Calm   7.9 km/h 73 % 0.0 mm
00:35 13.1 °C 8.4 °C 1022.9 hPa South 5.8 km/h 6.9 km/h 73 % 0.0 mm
00:40 13.1 °C 8.3 °C 1023.9 hPa South 5.0 km/h 8.7 km/h 73 % 0.0 mm
00:45 12.9 °C 8.2 °C 1023.9 hPa South 5.5 km/h 8.7 km/h 73 % 0.0 mm
00:50 12.8 °C 8.1 °C 1023.9 hPa SSW 7.9 km/h 8.7 km/h 73 % 0.0 mm
00:55 12.7 °C 8.0 °C 1023.9 hPa SSW 5.5 km/h 9.0 km/h 73 % 0.0 mm
01:00 12.6 °C 7.8 °C 1023.9 hPa Calm   9.0 km/h 73 % 0.0 mm
01:05 12.4 °C 7.7 °C 1023.9 hPa South 5.8 km/h 8.7 km/h 73 % 0.0 mm
01:10 12.2 °C 7.6 °C 1022.9 hPa South 5.8 km/h 8.7 km/h 73 % 0.0 mm
01:15 12.2 °C 7.7 °C 1022.9 hPa South 9.0 km/h 9.0 km/h 74 % 0.0 mm
01:20 12.2 °C 7.7 °C 1022.9 hPa South 1.4 km/h 9.0 km/h 74 % 0.0 mm
01:25 12.1 °C 7.6 °C 1022.9 hPa Calm   7.9 km/h 74 % 0.0 mm
01:30 11.9 °C 7.4 °C 1022.9 hPa SSE 6.4 km/h 7.9 km/h 74 % 0.0 mm
01:36 11.8 °C 7.6 °C 1022.9 hPa South 6.1 km/h 9.7 km/h 75 % 0.0 mm
01:41 11.8 °C 7.4 °C 1022.9 hPa South 4.7 km/h 9.7 km/h 75 % 0.0 mm
01:46 11.8 °C 7.6 °C 1022.9 hPa South 7.2 km/h 9.0 km/h 75 % 0.0 mm
01:51 11.8 °C 7.4 °C 1022.9 hPa South 7.9 km/h 9.3 km/h 75 % 0.0 mm
01:56 11.8 °C 7.7 °C 1021.9 hPa South 5.0 km/h 9.7 km/h 76 % 0.0 mm
02:01 11.8 °C 7.7 °C 1021.9 hPa SSE 9.0 km/h 9.7 km/h 76 % 0.0 mm
02:06 11.8 °C 7.8 °C 1021.9 hPa South 6.1 km/h 10.8 km/h 77 % 0.0 mm
02:11 11.8 °C 7.8 °C 1021.9 hPa South 6.4 km/h 10.8 km/h 77 % 0.0 mm
02:16 11.8 °C 7.9 °C 1021.9 hPa SSW 7.6 km/h 11.9 km/h 77 % 0.0 mm
02:21 11.8 °C 8.2 °C 1021.9 hPa South 8.7 km/h 11.9 km/h 78 % 0.0 mm
02:26 11.9 °C 8.2 °C 1022.9 hPa SSW 5.0 km/h 10.8 km/h 78 % 0.0 mm
02:31 11.9 °C 8.2 °C 1022.9 hPa South 8.7 km/h 11.6 km/h 78 % 0.0 mm
02:36 11.8 °C 7.9 °C 1022.9 hPa South 9.0 km/h 13.0 km/h 77 % 0.0 mm
02:41 11.8 °C 7.8 °C 1021.9 hPa South 9.7 km/h 13.0 km/h 77 % 0.0 mm
02:46 11.8 °C 7.8 °C 1021.9 hPa South 7.2 km/h 12.6 km/h 77 % 0.0 mm
02:51 11.8 °C 8.1 °C 1021.9 hPa SSW 9.3 km/h 12.6 km/h 78 % 0.0 mm
02:56 11.7 °C 7.9 °C 1022.9 hPa South 9.7 km/h 12.6 km/h 78 % 0.0 mm
02:57 11.7 °C 7.9 °C 1022.9 hPa South 10.5 km/h 12.6 km/h 78 % 0.0 mm
03:02 11.8 °C 8.1 °C 1022.9 hPa South 11.6 km/h 13.0 km/h 78 % 0.0 mm
03:07 11.8 °C 8.1 °C 1022.9 hPa South 6.4 km/h 13.0 km/h 78 % 0.0 mm
03:12 11.7 °C 8.2 °C 1022.9 hPa South 10.5 km/h 12.6 km/h 79 % 0.0 mm
03:17 11.6 °C 8.1 °C 1022.9 hPa SSW 9.3 km/h 13.0 km/h 79 % 0.0 mm
03:22 11.6 °C 8.1 °C 1022.9 hPa South 8.7 km/h 13.0 km/h 79 % 0.0 mm
03:27 11.4 °C 7.9 °C 1022.9 hPa South 9.3 km/h 11.9 km/h 79 % 0.0 mm
03:32 11.4 °C 7.9 °C 1022.9 hPa South 4.3 km/h 10.5 km/h 79 % 0.0 mm
03:37 11.4 °C 7.8 °C 1023.9 hPa SSW 6.1 km/h 10.5 km/h 79 % 0.0 mm
03:42 11.3 °C 7.8 °C 1023.9 hPa South 6.1 km/h 10.5 km/h 79 % 0.0 mm
03:47 11.3 °C 7.8 °C 1023.9 hPa South 5.8 km/h 10.5 km/h 79 % 0.0 mm
03:52 11.3 °C 7.9 °C 1022.9 hPa South 7.9 km/h 10.5 km/h 80 % 0.0 mm
03:57 11.2 °C 7.8 °C 1022.9 hPa SSW 9.0 km/h 10.5 km/h 80 % 0.0 mm
04:02 11.2 °C 7.8 °C 1022.9 hPa South 2.6 km/h 10.5 km/h 80 % 0.0 mm
04:07 11.1 °C 7.8 °C 1022.9 hPa South 4.7 km/h 10.1 km/h 80 % 0.0 mm
04:12 11.1 °C 7.8 °C 1022.9 hPa South 7.9 km/h 9.3 km/h 80 % 0.0 mm
04:17 11.0 °C 7.8 °C 1022.9 hPa Calm   12.2 km/h 81 % 0.0 mm
04:22 11.0 °C 7.8 °C 1022.9 hPa Calm   12.2 km/h 81 % 0.0 mm
04:27 10.9 °C 7.7 °C 1022.9 hPa SSW 4.3 km/h 10.5 km/h 81 % 0.0 mm
04:32 10.9 °C 7.7 °C 1022.9 hPa South 4.7 km/h 10.5 km/h 81 % 0.0 mm
04:37 10.8 °C 7.7 °C 1022.9 hPa Calm   7.6 km/h 81 % 0.0 mm
04:42 10.6 °C 7.4 °C 1022.9 hPa Calm   7.6 km/h 81 % 0.0 mm
04:47 10.5 °C 7.4 °C 1022.9 hPa SSW 3.5 km/h 4.7 km/h 81 % 0.0 mm
04:52 10.4 °C 7.3 °C 1022.9 hPa South 2.1 km/h 6.1 km/h 81 % 0.0 mm
04:57 10.3 °C 7.3 °C 1022.9 hPa SSW 4.7 km/h 6.9 km/h 82 % 0.0 mm
05:02 10.4 °C 7.4 °C 1022.9 hPa Calm   7.6 km/h 82 % 0.0 mm
05:07 10.4 °C 7.4 °C 1022.9 hPa Calm   7.6 km/h 82 % 0.0 mm
05:12 10.5 °C 7.7 °C 1022.9 hPa SSW 5.0 km/h 6.1 km/h 83 % 0.0 mm
05:17 10.6 °C 7.8 °C 1022.9 hPa South 1.4 km/h 7.9 km/h 83 % 0.0 mm
05:22 10.6 °C 7.8 °C 1022.9 hPa South 5.0 km/h 7.9 km/h 83 % 0.0 mm
05:27 10.7 °C 7.9 °C 1022.9 hPa SSW 6.4 km/h 9.0 km/h 83 % 0.0 mm
05:32 10.8 °C 8.0 °C 1022.9 hPa South 7.2 km/h 9.0 km/h 83 % 0.0 mm
05:37 10.9 °C 8.1 °C 1022.9 hPa SSW 5.8 km/h 9.3 km/h 83 % 0.0 mm
05:42 11.1 °C 8.3 °C 1022.9 hPa South 3.2 km/h 10.5 km/h 83 % 0.0 mm
05:47 11.2 °C 8.4 °C 1022.9 hPa Calm   10.5 km/h 83 % 0.0 mm
05:52 11.3 °C 8.5 °C 1022.9 hPa South 9.7 km/h 9.7 km/h 83 % 0.0 mm
05:57 11.4 °C 8.6 °C 1022.9 hPa South 9.7 km/h 10.8 km/h 83 % 0.0 mm
05:58 11.4 °C 8.6 °C 1022.9 hPa South 9.3 km/h 10.8 km/h 83 % 0.0 mm
06:03 11.4 °C 8.7 °C 1022.9 hPa South 10.1 km/h 10.8 km/h 83 % 0.0 mm
06:08 11.6 °C 8.6 °C 1022.9 hPa SSW 8.7 km/h 11.6 km/h 82 % 0.0 mm
06:13 11.6 °C 8.6 °C 1022.9 hPa SSW 9.0 km/h 11.6 km/h 82 % 0.0 mm
06:18 11.4 °C 8.3 °C 1022.9 hPa South 6.1 km/h 9.7 km/h 81 % 0.0 mm
06:23 11.4 °C 8.3 °C 1022.9 hPa South 6.1 km/h 9.0 km/h 81 % 0.0 mm
06:28 11.4 °C 8.1 °C 1022.9 hPa SSW 7.9 km/h 10.5 km/h 80 % 0.0 mm
06:33 11.3 °C 7.9 °C 1022.9 hPa South 10.8 km/h 10.8 km/h 80 % 0.0 mm
06:38 11.2 °C 7.8 °C 1022.9 hPa SSW 5.8 km/h 10.8 km/h 80 % 0.0 mm
06:43 11.1 °C 7.8 °C 1022.9 hPa South 5.5 km/h 9.0 km/h 80 % 0.0 mm
06:48 10.9 °C 7.6 °C 1022.9 hPa SSW 5.8 km/h 9.0 km/h 80 % 0.0 mm
06:53 10.8 °C 7.4 °C 1022.9 hPa SSW 6.1 km/h 9.0 km/h 80 % 0.0 mm
06:58 10.7 °C 7.4 °C 1022.9 hPa SSW 1.4 km/h 8.7 km/h 80 % 0.0 mm
07:03 10.5 °C 7.2 °C 1022.9 hPa South 3.2 km/h 6.9 km/h 80 % 0.0 mm
07:08 10.4 °C 7.1 °C 1022.9 hPa SSW 5.0 km/h 6.9 km/h 80 % 0.0 mm
07:13 10.3 °C 7.2 °C 1022.9 hPa SSE 6.4 km/h 6.9 km/h 81 % 0.0 mm
07:18 10.2 °C 7.1 °C 1022.9 hPa Calm   6.9 km/h 81 % 0.0 mm
07:23 10.1 °C 7.0 °C 1022.9 hPa Calm   6.4 km/h 81 % 0.0 mm
07:28 10.1 °C 7.0 °C 1022.9 hPa Calm   7.6 km/h 81 % 0.0 mm
07:33 10.1 °C 7.2 °C 1022.9 hPa South 1.4 km/h 7.6 km/h 82 % 0.0 mm
07:38 10.2 °C 7.4 °C 1022.9 hPa South 2.1 km/h 10.1 km/h 83 % 0.0 mm
07:43 10.3 °C 7.6 °C 1022.9 hPa South 6.1 km/h 10.1 km/h 83 % 0.0 mm
07:48 10.4 °C 7.6 °C 1022.9 hPa Calm   10.1 km/h 83 % 0.0 mm
07:53 10.5 °C 7.7 °C 1022.9 hPa SSW 4.7 km/h 8.7 km/h 83 % 0.0 mm
07:58 10.5 °C 7.7 °C 1022.9 hPa SSE 5.5 km/h 8.7 km/h 83 % 0.0 mm
08:03 10.7 °C 7.9 °C 1022.9 hPa SSE 7.6 km/h 9.7 km/h 83 % 0.0 mm
08:08 10.8 °C 8.0 °C 1022.9 hPa SSE 4.7 km/h 10.1 km/h 83 % 0.0 mm
08:13 10.9 °C 8.1 °C 1022.9 hPa Calm   11.9 km/h 83 % 0.0 mm
08:18 11.1 °C 8.1 °C 1022.9 hPa South 6.4 km/h 11.9 km/h 82 % 0.0 mm
08:23 11.2 °C 8.2 °C 1021.9 hPa South 5.8 km/h 9.7 km/h 82 % 0.0 mm
08:28 11.3 °C 8.3 °C 1021.9 hPa Calm   9.7 km/h 82 % 0.0 mm
08:33 11.4 °C 8.4 °C 1021.9 hPa South 5.8 km/h 7.6 km/h 82 % 0.0 mm
08:38 11.4 °C 8.5 °C 1022.9 hPa SSW 10.5 km/h 10.5 km/h 82 % 0.0 mm
08:43 11.6 °C 8.4 °C 1022.9 hPa SSW 6.4 km/h 10.5 km/h 81 % 0.0 mm
08:48 11.7 °C 8.5 °C 1022.9 hPa South 2.6 km/h 10.5 km/h 81 % 0.0 mm
08:53 11.7 °C 8.3 °C 1021.9 hPa Calm   10.5 km/h 80 % 0.0 mm
08:58 11.7 °C 8.3 °C 1021.9 hPa South 6.9 km/h 10.1 km/h 80 % 0.0 mm
09:04 11.9 °C 8.6 °C 1021.9 hPa Calm   10.8 km/h 80 % 0.0 mm
09:08 12.4 °C 9.1 °C 1021.9 hPa South 4.7 km/h 10.8 km/h 80 % 0.0 mm
09:14 13.1 °C 9.6 °C 1021.9 hPa SSW 5.5 km/h 10.5 km/h 79 % 0.0 mm
09:19 13.5 °C 9.6 °C 1021.9 hPa South 3.5 km/h 10.1 km/h 77 % 0.0 mm
09:24 13.5 °C 9.2 °C 1022.9 hPa South 6.1 km/h 12.2 km/h 75 % 0.0 mm
09:29 13.5 °C 9.2 °C 1022.9 hPa SSE 5.0 km/h 13.0 km/h 75 % 0.0 mm
09:34 13.9 °C 9.3 °C 1022.9 hPa SSE 8.7 km/h 13.0 km/h 74 % 0.0 mm
09:39 14.3 °C 9.7 °C 1021.9 hPa SSE 9.3 km/h 11.6 km/h 74 % 0.0 mm
09:44 14.8 °C 10.0 °C 1021.9 hPa South 6.4 km/h 9.7 km/h 73 % 0.0 mm
09:49 15.2 °C 10.2 °C 1021.9 hPa SSE 6.9 km/h 12.6 km/h 72 % 0.0 mm
09:54 15.6 °C 10.1 °C 1022.9 hPa Calm   12.6 km/h 70 % 0.0 mm
09:59 15.9 °C 10.2 °C 1022.9 hPa Calm   10.5 km/h 69 % 0.0 mm
10:04 16.4 °C 10.7 °C 1022.9 hPa SSW 9.3 km/h 9.3 km/h 69 % 0.0 mm
10:09 16.7 °C 10.1 °C 1022.9 hPa SSW 10.5 km/h 14.0 km/h 65 % 0.0 mm
10:14 16.7 °C 9.6 °C 1022.9 hPa SSE 10.1 km/h 16.3 km/h 63 % 0.0 mm
10:19 16.8 °C 9.4 °C 1022.9 hPa SSW 9.7 km/h 16.3 km/h 62 % 0.0 mm
10:24 16.9 °C 8.9 °C 1021.9 hPa South 10.5 km/h 12.2 km/h 59 % 0.0 mm
10:29 17.1 °C 9.0 °C 1021.9 hPa SSE 9.7 km/h 14.3 km/h 59 % 0.0 mm
10:34 17.3 °C 9.0 °C 1021.9 hPa SSE 5.8 km/h 16.9 km/h 58 % 0.0 mm
10:39 17.7 °C 9.0 °C 1022.9 hPa SSW 7.9 km/h 16.9 km/h 57 % 0.0 mm
10:44 17.9 °C 9.6 °C 1022.9 hPa SSW 8.7 km/h 15.8 km/h 58 % 0.0 mm
10:49 18.2 °C 9.3 °C 1022.9 hPa South 12.6 km/h 13.7 km/h 56 % 0.0 mm
10:54 18.4 °C 9.2 °C 1022.9 hPa SSE 15.8 km/h 15.8 km/h 55 % 0.0 mm
10:59 18.5 °C 9.3 °C 1022.9 hPa SSE 10.1 km/h 15.8 km/h 55 % 0.0 mm
11:04 18.7 °C 8.9 °C 1022.9 hPa SSE 9.7 km/h 16.9 km/h 53 % 0.0 mm
11:09 18.7 °C 8.7 °C 1022.9 hPa South 12.2 km/h 17.2 km/h 52 % 0.0 mm
11:14 18.8 °C 8.7 °C 1022.9 hPa South 15.4 km/h 17.2 km/h 52 % 0.0 mm
11:19 18.9 °C 8.8 °C 1022.9 hPa South 14.0 km/h 16.3 km/h 52 % 0.0 mm
11:24 18.9 °C 8.6 °C 1022.9 hPa South 6.1 km/h 23.3 km/h 51 % 0.0 mm
11:29 19.1 °C 9.0 °C 1022.9 hPa SSE 15.8 km/h 23.3 km/h 52 % 0.0 mm
11:34 19.3 °C 8.9 °C 1022.9 hPa SSW 9.7 km/h 17.2 km/h 51 % 0.0 mm
11:39 19.3 °C 8.6 °C 1022.9 hPa SSE 15.4 km/h 21.2 km/h 50 % 0.0 mm
11:44 19.6 °C 9.2 °C 1022.9 hPa SSW 6.1 km/h 21.2 km/h 51 % 0.0 mm
11:49 19.8 °C 9.1 °C 1022.9 hPa SSW 7.9 km/h 17.7 km/h 50 % 0.0 mm
11:54 20.0 °C 8.9 °C 1022.9 hPa SSE 11.6 km/h 19.1 km/h 49 % 0.0 mm
11:59 20.0 °C 8.9 °C 1022.9 hPa South 15.4 km/h 20.9 km/h 49 % 0.0 mm
12:04 20.1 °C 8.7 °C 1022.9 hPa SSW 10.5 km/h 20.9 km/h 48 % 0.0 mm
12:09 20.4 °C 9.3 °C 1022.9 hPa South 9.7 km/h 20.9 km/h 49 % 0.0 mm
12:14 20.4 °C 8.7 °C 1022.9 hPa South 12.6 km/h 22.4 km/h 47 % 0.0 mm
12:19 20.5 °C 8.8 °C 1022.9 hPa South 15.8 km/h 22.4 km/h 47 % 0.0 mm
12:24 20.9 °C 9.1 °C 1021.9 hPa WSW 9.3 km/h 21.2 km/h 47 % 0.0 mm
12:29 21.1 °C 9.3 °C 1021.9 hPa ESE 13.7 km/h 21.2 km/h 47 % 0.0 mm
12:34 20.9 °C 8.9 °C 1021.9 hPa South 9.7 km/h 23.0 km/h 46 % 0.0 mm
12:39 21.3 °C 9.2 °C 1021.9 hPa SW 13.7 km/h 23.0 km/h 46 % 0.0 mm
12:44 21.6 °C 9.1 °C 1021.9 hPa SSW 6.1 km/h 17.7 km/h 45 % 0.0 mm
12:49 21.7 °C 8.9 °C 1021.9 hPa SSW 13.0 km/h 24.8 km/h 44 % 0.0 mm
12:54 21.7 °C 8.9 °C 1021.9 hPa SSW 15.8 km/h 24.8 km/h 44 % 0.0 mm
12:59 22.1 °C 9.2 °C 1021.9 hPa South 11.6 km/h 19.8 km/h 44 % 0.0 mm
13:04 22.2 °C 9.1 °C 1021.9 hPa South 10.1 km/h 21.2 km/h 43 % 0.0 mm
13:09 22.2 °C 8.6 °C 1021.9 hPa SSW 17.2 km/h 24.5 km/h 42 % 0.0 mm
13:14 22.3 °C 9.2 °C 1021.9 hPa SW 16.9 km/h 24.5 km/h 43 % 0.0 mm
13:19 22.3 °C 8.8 °C 1021.9 hPa SSW 15.8 km/h 24.5 km/h 42 % 0.0 mm
13:24 22.6 °C 9.0 °C 1021.9 hPa South 19.5 km/h 24.5 km/h 42 % 0.0 mm
13:29 22.8 °C 8.9 °C 1021.9 hPa SSW 13.0 km/h 19.5 km/h 41 % 0.0 mm
13:34 22.9 °C 9.0 °C 1021.9 hPa SW 9.3 km/h 19.1 km/h 41 % 0.0 mm
13:39 23.1 °C 9.1 °C 1021.9 hPa SSW 15.4 km/h 19.1 km/h 41 % 0.0 mm
13:44 23.3 °C 9.3 °C 1021.9 hPa SSW 11.9 km/h 20.9 km/h 41 % 0.0 mm
13:50 23.4 °C 9.4 °C 1021.9 hPa SSW 21.2 km/h 21.2 km/h 41 % 0.0 mm
13:55 23.4 °C 9.4 °C 1020.9 hPa SW 13.0 km/h 21.2 km/h 41 % 0.0 mm
14:00 23.5 °C 8.8 °C 1020.9 hPa South 16.3 km/h 21.2 km/h 39 % 0.0 mm
14:05 23.3 °C 8.9 °C 1020.9 hPa SSW 9.7 km/h 19.1 km/h 40 % 0.0 mm
14:06 23.5 °C 9.1 °C 1020.9 hPa SSW 12.2 km/h 19.1 km/h 40 % 0.0 mm
14:11 23.4 °C 9.1 °C 1020.9 hPa South 9.3 km/h 21.9 km/h 40 % 0.0 mm
14:16 23.3 °C 8.9 °C 1020.9 hPa SW 19.5 km/h 21.9 km/h 40 % 0.0 mm
14:17 23.4 °C 9.1 °C 1020.9 hPa SSW 20.6 km/h 24.5 km/h 40 % 0.0 mm
14:22 23.5 °C 8.8 °C 1020.9 hPa WSW 15.4 km/h 24.5 km/h 39 % 0.0 mm
14:27 23.6 °C 8.8 °C 1020.9 hPa SW 12.2 km/h 20.6 km/h 39 % 0.0 mm
14:32 23.5 °C 8.4 °C 1020.9 hPa SSE 14.3 km/h 20.6 km/h 38 % 0.0 mm
14:37 23.6 °C 8.8 °C 1020.9 hPa SSW 17.2 km/h 20.6 km/h 39 % 0.0 mm
14:42 23.6 °C 8.4 °C 1020.9 hPa South 17.2 km/h 20.6 km/h 38 % 0.0 mm
14:47 23.6 °C 8.4 °C 1020.9 hPa SSW 9.0 km/h 20.6 km/h 38 % 0.0 mm
14:52 23.7 °C 8.9 °C 1020.9 hPa South 9.3 km/h 20.6 km/h 39 % 0.0 mm
14:57 23.8 °C 9.0 °C 1020.9 hPa SSW 13.0 km/h 20.1 km/h 39 % 0.0 mm
15:02 23.5 °C 8.4 °C 1020.9 hPa SSW 16.9 km/h 23.8 km/h 38 % 0.0 mm
15:07 23.7 °C 8.6 °C 1020.9 hPa SSE 16.6 km/h 23.8 km/h 38 % 0.0 mm
15:12 23.4 °C 8.3 °C 1020.9 hPa South 9.0 km/h 19.8 km/h 38 % 0.0 mm
15:17 23.3 °C 8.6 °C 1020.9 hPa SSE 6.9 km/h 19.8 km/h 39 % 0.0 mm
15:22 23.3 °C 8.2 °C 1020.9 hPa SW 13.0 km/h 19.8 km/h 38 % 0.0 mm
15:27 23.3 °C 8.6 °C 1020.9 hPa South 11.9 km/h 16.3 km/h 39 % 0.0 mm
15:32 23.3 °C 8.6 °C 1020.9 hPa SSE 17.2 km/h 17.2 km/h 39 % 0.0 mm
15:37 23.2 °C 8.5 °C 1020.9 hPa South 13.7 km/h 23.0 km/h 39 % 0.0 mm
15:42 23.2 °C 8.5 °C 1020.9 hPa South 14.0 km/h 22.4 km/h 39 % 0.0 mm
15:43 23.2 °C 8.5 °C 1020.9 hPa South 16.9 km/h 19.5 km/h 39 % 0.0 mm
15:48 23.1 °C 8.0 °C 1020.9 hPa South 14.0 km/h 19.5 km/h 38 % 0.0 mm
15:53 23.1 °C 8.0 °C 1019.9 hPa South 17.7 km/h 23.8 km/h 38 % 0.0 mm
15:58 23.1 °C 8.4 °C 1019.9 hPa SSW 11.9 km/h 23.8 km/h 39 % 0.0 mm
16:03 23.3 °C 8.6 °C 1019.9 hPa South 11.9 km/h 21.6 km/h 39 % 0.0 mm
16:08 23.3 °C 8.6 °C 1019.9 hPa South 12.2 km/h 21.6 km/h 39 % 0.0 mm
16:13 23.4 °C 8.7 °C 1019.9 hPa South 13.7 km/h 18.3 km/h 39 % 0.0 mm
16:18 23.3 °C 8.6 °C 1019.9 hPa SSE 15.8 km/h 18.3 km/h 39 % 0.0 mm
16:23 23.5 °C 8.4 °C 1019.9 hPa SSW 9.3 km/h 21.2 km/h 38 % 0.0 mm
16:28 23.6 °C 8.4 °C 1019.9 hPa SSE 16.9 km/h 21.2 km/h 38 % 0.0 mm
16:33 23.3 °C 8.2 °C 1019.9 hPa SSE 16.9 km/h 19.1 km/h 38 % 0.0 mm
16:39 23.2 °C 8.1 °C 1018.8 hPa SSE 12.2 km/h 20.9 km/h 38 % 0.0 mm
16:44 23.2 °C 7.7 °C 1018.8 hPa SSW 15.1 km/h 22.7 km/h 37 % 0.0 mm
16:49 23.3 °C 8.2 °C 1018.8 hPa SE 13.0 km/h 22.7 km/h 38 % 0.0 mm
16:54 23.5 °C 8.0 °C 1018.8 hPa SSW 12.2 km/h 20.9 km/h 37 % 0.0 mm
16:59 23.3 °C 7.8 °C 1018.8 hPa South 9.3 km/h 24.5 km/h 37 % 0.0 mm
17:04 23.2 °C 7.7 °C 1018.8 hPa SSW 5.5 km/h 24.5 km/h 37 % 0.0 mm
17:09 23.2 °C 8.1 °C 1018.8 hPa SE 15.1 km/h 19.8 km/h 38 % 0.0 mm
17:14 23.2 °C 8.1 °C 1018.8 hPa SSE 6.9 km/h 19.5 km/h 38 % 0.0 mm
17:19 23.1 °C 8.0 °C 1018.8 hPa SSW 12.2 km/h 19.5 km/h 38 % 0.0 mm
17:24 23.1 °C 7.6 °C 1018.8 hPa South 14.3 km/h 22.7 km/h 37 % 0.0 mm
17:29 23.1 °C 7.6 °C 1018.8 hPa SSE 20.6 km/h 22.7 km/h 37 % 0.0 mm
17:34 23.1 °C 7.6 °C 1018.8 hPa SSE 21.2 km/h 21.2 km/h 37 % 0.0 mm
17:39 23.1 °C 7.6 °C 1018.8 hPa South 16.9 km/h 21.2 km/h 37 % 0.0 mm
17:44 23.1 °C 8.0 °C 1018.8 hPa South 12.2 km/h 21.2 km/h 38 % 0.0 mm
17:49 23.1 °C 8.0 °C 1018.8 hPa SSE 9.3 km/h 20.9 km/h 38 % 0.0 mm
17:54 23.1 °C 8.0 °C 1018.8 hPa Calm   20.9 km/h 38 % 0.0 mm
17:59 23.1 °C 8.0 °C 1018.8 hPa SSE 17.7 km/h 17.7 km/h 38 % 0.0 mm
18:04 22.9 °C 8.2 °C 1018.8 hPa SSE 9.3 km/h 17.7 km/h 39 % 0.0 mm
18:09 22.7 °C 8.1 °C 1018.8 hPa SSE 9.3 km/h 17.7 km/h 39 % 0.0 mm
18:14 22.7 °C 8.1 °C 1018.8 hPa SSE 12.2 km/h 15.1 km/h 39 % 0.0 mm
18:19 22.6 °C 7.9 °C 1018.8 hPa ESE 12.6 km/h 17.7 km/h 39 % 0.0 mm
18:23 22.6 °C 7.9 °C 1018.8 hPa SSW 12.2 km/h 17.7 km/h 39 % 0.0 mm
18:28 22.4 °C 8.2 °C 1018.8 hPa South 10.5 km/h 19.5 km/h 40 % 0.0 mm
18:33 22.2 °C 8.0 °C 1018.8 hPa SSE 7.9 km/h 19.5 km/h 40 % 0.0 mm
18:38 22.2 °C 8.0 °C 1018.2 hPa South 10.1 km/h 17.2 km/h 40 % 0.0 mm
18:40 22.2 °C 7.9 °C 1018.2 hPa SSE 10.5 km/h 17.2 km/h 40 % 0.0 mm
18:45 21.9 °C 7.7 °C 1018.2 hPa SSE 9.3 km/h 20.1 km/h 40 % 0.0 mm
18:50 21.8 °C 7.9 °C 1018.2 hPa South 9.3 km/h 20.1 km/h 41 % 0.0 mm
18:55 21.6 °C 7.7 °C 1018.2 hPa SSE 10.1 km/h 16.3 km/h 41 % 0.0 mm
19:00 21.3 °C 7.5 °C 1018.2 hPa SSE 13.7 km/h 16.3 km/h 41 % 0.0 mm
19:05 21.3 °C 7.8 °C 1018.2 hPa South 8.7 km/h 15.4 km/h 42 % 0.0 mm
19:10 21.1 °C 7.7 °C 1018.2 hPa South 3.2 km/h 13.7 km/h 42 % 0.0 mm
19:15 20.8 °C 7.4 °C 1018.2 hPa SSE 5.5 km/h 14.3 km/h 42 % 0.0 mm
19:20 20.7 °C 7.3 °C 1018.2 hPa SSE 11.9 km/h 14.3 km/h 42 % 0.0 mm
19:25 20.6 °C 7.2 °C 1018.2 hPa SSE 9.0 km/h 12.6 km/h 42 % 0.0 mm
19:30 20.4 °C 7.4 °C 1018.2 hPa SSE 12.6 km/h 16.6 km/h 43 % 0.0 mm
19:35 20.3 °C 7.3 °C 1018.2 hPa SSE 5.8 km/h 16.6 km/h 43 % 0.0 mm
19:40 20.1 °C 7.1 °C 1018.2 hPa SSE 4.0 km/h 12.2 km/h 43 % 0.0 mm
19:45 19.9 °C 6.9 °C 1018.2 hPa SSE 5.8 km/h 9.0 km/h 43 % 0.0 mm
19:50 19.7 °C 6.8 °C 1018.2 hPa SSE 8.7 km/h 9.0 km/h 43 % 0.0 mm
19:55 19.5 °C 6.9 °C 1018.2 hPa Calm   10.5 km/h 44 % 0.0 mm
20:00 19.3 °C 6.7 °C 1018.2 hPa SE 4.3 km/h 10.5 km/h 44 % 0.0 mm
20:05 19.2 °C 6.7 °C 1018.2 hPa SE 4.3 km/h 8.7 km/h 44 % 0.0 mm
20:10 19.0 °C 6.8 °C 1018.2 hPa SSE 5.8 km/h 9.7 km/h 45 % 0.0 mm
20:15 19.0 °C 6.8 °C 1018.2 hPa SSE 11.9 km/h 11.9 km/h 45 % 0.0 mm
20:20 18.8 °C 6.6 °C 1018.2 hPa SE 9.3 km/h 11.9 km/h 45 % 0.0 mm
20:25 18.6 °C 6.4 °C 1018.2 hPa SSE 5.0 km/h 11.9 km/h 45 % 0.0 mm
20:30 18.4 °C 6.6 °C 1018.2 hPa SE 5.5 km/h 9.3 km/h 46 % 0.0 mm
20:35 18.2 °C 6.4 °C 1018.2 hPa SE 6.4 km/h 9.0 km/h 46 % 0.0 mm
20:40 17.9 °C 6.4 °C 1018.2 hPa Calm   9.0 km/h 47 % 0.0 mm
20:45 17.7 °C 6.3 °C 1018.2 hPa SSE 9.0 km/h 9.0 km/h 47 % 0.0 mm
20:50 17.6 °C 6.4 °C 1018.2 hPa SE 6.4 km/h 9.0 km/h 48 % 0.0 mm
20:55 17.4 °C 6.3 °C 1018.2 hPa Calm   6.9 km/h 48 % 0.0 mm
21:00 17.2 °C 6.3 °C 1018.2 hPa Calm   6.4 km/h 49 % 0.0 mm
21:05 16.9 °C 6.4 °C 1018.2 hPa Calm   6.1 km/h 50 % 0.0 mm
21:10 16.8 °C 6.6 °C 1016.8 hPa ESE 5.5 km/h 6.9 km/h 51 % 0.0 mm
21:15 16.7 °C 6.4 °C 1016.8 hPa Calm   6.9 km/h 51 % 0.0 mm
21:20 16.6 °C 6.7 °C 1016.8 hPa Calm   6.1 km/h 52 % 0.0 mm
21:25 16.4 °C 6.8 °C 1016.8 hPa Calm   4.7 km/h 53 % 0.0 mm
21:30 16.4 °C 7.1 °C 1016.8 hPa SSE 5.5 km/h 5.5 km/h 54 % 0.0 mm
21:35 16.4 °C 7.1 °C 1016.8 hPa Calm   7.9 km/h 54 % 0.0 mm
21:40 16.4 °C 7.4 °C 1016.8 hPa Calm   9.0 km/h 55 % 0.0 mm
21:45 16.4 °C 7.3 °C 1016.8 hPa SSE 4.7 km/h 9.0 km/h 55 % 0.0 mm
21:50 16.4 °C 7.7 °C 1016.8 hPa South 1.8 km/h 9.7 km/h 56 % 0.0 mm
21:55 16.4 °C 7.7 °C 1016.8 hPa SSE 7.6 km/h 9.7 km/h 56 % 0.0 mm
22:00 16.4 °C 7.9 °C 1016.8 hPa Calm   8.7 km/h 57 % 0.0 mm
22:05 16.4 °C 7.8 °C 1016.8 hPa SSE 5.8 km/h 8.7 km/h 57 % 0.0 mm
22:10 16.4 °C 7.8 °C 1016.8 hPa SE 7.9 km/h 10.5 km/h 57 % 0.0 mm
22:15 16.4 °C 7.8 °C 1016.8 hPa SSE 6.1 km/h 10.5 km/h 57 % 0.0 mm
22:20 16.3 °C 8.0 °C 1016.8 hPa SSE 6.1 km/h 8.7 km/h 58 % 0.0 mm
22:25 16.3 °C 8.0 °C 1016.8 hPa SE 6.9 km/h 9.0 km/h 58 % 0.0 mm
22:30 16.2 °C 8.2 °C 1016.8 hPa SE 6.4 km/h 9.7 km/h 59 % 0.0 mm
22:35 16.2 °C 8.2 °C 1016.8 hPa Calm   9.7 km/h 59 % 0.0 mm
22:40 16.3 °C 8.2 °C 1016.8 hPa Calm   9.7 km/h 59 % 0.0 mm
22:45 16.3 °C 8.2 °C 1016.8 hPa SE 5.5 km/h 9.7 km/h 59 % 0.0 mm
22:50 16.3 °C 8.2 °C 1016.8 hPa Calm   10.1 km/h 59 % 0.0 mm
22:55 16.3 °C 8.5 °C 1016.8 hPa Calm   10.1 km/h 60 % 0.0 mm
23:00 16.3 °C 8.5 °C 1016.8 hPa Calm   9.3 km/h 60 % 0.0 mm
23:05 16.3 °C 8.5 °C 1016.8 hPa SE 6.9 km/h 9.3 km/h 60 % 0.0 mm
23:10 16.2 °C 8.4 °C 1016.8 hPa SE 4.0 km/h 9.3 km/h 60 % 0.0 mm
23:15 16.2 °C 8.4 °C 1016.8 hPa SE 5.5 km/h 10.1 km/h 60 % 0.0 mm
23:20 16.0 °C 8.2 °C 1016.8 hPa SSE 8.7 km/h 10.1 km/h 60 % 0.0 mm
23:25 15.8 °C 8.0 °C 1016.8 hPa SSE 6.4 km/h 9.0 km/h 60 % 0.0 mm
23:30 15.7 °C 7.9 °C 1016.8 hPa ESE 6.4 km/h 9.0 km/h 60 % 0.0 mm
23:35 15.5 °C 8.0 °C 1016.8 hPa SSE 4.7 km/h 9.0 km/h 61 % 0.0 mm
23:40 15.4 °C 8.1 °C 1016.1 hPa Calm   9.0 km/h 62 % 0.0 mm
23:45 15.3 °C 8.1 °C 1016.1 hPa Calm   6.4 km/h 62 % 0.0 mm
23:50 15.3 °C 8.1 °C 1016.1 hPa Calm   6.4 km/h 62 % 0.0 mm
23:55 15.3 °C 8.1 °C 1016.1 hPa Calm     62 % 0.0 mm
Le Gheer Warneton
Courtoisie de Weather Underground - 2.25 mb

Mise a jour : 18/12/2017 23:16:12
Généré par Cumulus 1.9.4 (1099)